OAL1CG RJOO-RPLC
Flight info
| Callsign | OAL1CG |
|---|---|
| Flight time | 3h 24m |
| Altitude | 34000 |
| Route | AWAJI Y232 KRE V53 SUC B597 ONC A582 NHC V91 PAYAO/N0456F360 V91 MJC B462 LAO M646 SANRO W4 MALIB MALIB1N |
| Aircraft | B739/M-SDE2E3FGHIRWXY/LB1 |
Departure
| Time | 2026-05-06 19:56 |
|---|---|
| Airport | Osaka Itami International Airport (RJOO) |
Arrival
| Time | 2026-05-06 23:20 |
|---|---|
| Airport | Clark International Airport / Clark Air Base (RPLC) |
| Time | Latitude | Longitude | Altitude | Speed | Heading |
|---|---|---|---|---|---|
| 2026-05-06 19:46 | 34.78707 | 135.44388 | 48 ft | 0 kts | 352° |
| 2026-05-06 19:46 | 34.78703 | 135.44389 | 46 ft | 2 kts | 351° |
| 2026-05-06 19:46 | 34.78691 | 135.44391 | 46 ft | 2 kts | 351° |
| 2026-05-06 19:47 | 34.78680 | 135.44393 | 47 ft | 2 kts | 351° |
| 2026-05-06 19:47 | 34.78668 | 135.44396 | 48 ft | 2 kts | 351° |
| 2026-05-06 19:47 | 34.78657 | 135.44398 | 47 ft | 2 kts | 351° |
| 2026-05-06 19:47 | 34.78646 | 135.44400 | 48 ft | 2 kts | 351° |
| 2026-05-06 19:48 | 34.78635 | 135.44403 | 47 ft | 2 kts | 334° |
| 2026-05-06 19:48 | 34.78625 | 135.44411 | 46 ft | 2 kts | 283° |
| 2026-05-06 19:48 | 34.78625 | 135.44420 | 44 ft | 0 kts | 239° |
| 2026-05-06 19:49 | 34.78613 | 135.44403 | 46 ft | 6 kts | 228° |
| 2026-05-06 19:50 | 34.78562 | 135.44346 | 46 ft | 13 kts | 209° |
| 2026-05-06 19:50 | 34.78453 | 135.44337 | 48 ft | 17 kts | 177° |
| 2026-05-06 19:50 | 34.78337 | 135.44336 | 51 ft | 16 kts | 181° |
| 2026-05-06 19:50 | 34.78225 | 135.44335 | 50 ft | 16 kts | 179° |
| 2026-05-06 19:51 | 34.78132 | 135.44390 | 47 ft | 15 kts | 136° |
| 2026-05-06 19:51 | 34.78058 | 135.44478 | 47 ft | 15 kts | 135° |
| 2026-05-06 19:51 | 34.77988 | 135.44562 | 47 ft | 14 kts | 135° |
| 2026-05-06 19:51 | 34.77921 | 135.44642 | 48 ft | 13 kts | 135° |
| 2026-05-06 19:52 | 34.77853 | 135.44726 | 48 ft | 15 kts | 133° |
| 2026-05-06 19:52 | 34.77779 | 135.44817 | 49 ft | 16 kts | 136° |
| 2026-05-06 19:52 | 34.77695 | 135.44916 | 47 ft | 17 kts | 136° |
| 2026-05-06 19:52 | 34.77647 | 135.44975 | 49 ft | 18 kts | 134° |
| 2026-05-06 19:53 | 34.77622 | 135.45006 | 48 ft | 18 kts | 134° |
| 2026-05-06 19:53 | 34.77529 | 135.45119 | 49 ft | 20 kts | 135° |
| 2026-05-06 19:53 | 34.77429 | 135.45241 | 49 ft | 21 kts | 135° |
| 2026-05-06 19:53 | 34.77319 | 135.45304 | 47 ft | 7 kts | 187° |
| 2026-05-06 19:54 | 34.77275 | 135.45285 | 49 ft | 7 kts | 208° |
| 2026-05-06 19:54 | 34.77248 | 135.45243 | 50 ft | 7 kts | 255° |
| 2026-05-06 19:54 | 34.77242 | 135.45189 | 51 ft | 6 kts | 267° |
| 2026-05-06 19:54 | 34.77247 | 135.45146 | 51 ft | 3 kts | 314° |
| 2026-05-06 19:55 | 34.77279 | 135.45110 | 49 ft | 21 kts | 317° |
| 2026-05-06 19:55 | 34.77559 | 135.44777 | 50 ft | 91 kts | 315° |
| 2026-05-06 19:55 | 34.78143 | 135.44069 | 51 ft | 147 kts | 315° |
| 2026-05-06 19:55 | 34.78959 | 135.43067 | 181 ft | 179 kts | 314° |
| 2026-05-06 19:56 | 34.79792 | 135.41964 | 901 ft | 176 kts | 308° |
| 2026-05-06 19:56 | 34.80186 | 135.40544 | 1401 ft | 185 kts | 266° |
| 2026-05-06 19:56 | 34.79880 | 135.39004 | 1893 ft | 197 kts | 245° |
| 2026-05-06 19:56 | 34.78964 | 135.37680 | 2090 ft | 217 kts | 213° |
| 2026-05-06 19:57 | 34.77496 | 135.37071 | 2338 ft | 234 kts | 182° |
| 2026-05-06 19:57 | 34.75844 | 135.37374 | 2639 ft | 251 kts | 165° |
| 2026-05-06 19:57 | 34.74109 | 135.37946 | 3117 ft | 262 kts | 172° |
| 2026-05-06 19:57 | 34.72308 | 135.37808 | 3841 ft | 260 kts | 195° |
| 2026-05-06 19:58 | 34.70543 | 135.37298 | 4634 ft | 261 kts | 195° |
| 2026-05-06 19:58 | 34.68765 | 135.36794 | 5370 ft | 263 kts | 195° |
| 2026-05-06 19:58 | 34.67000 | 135.36190 | 6083 ft | 264 kts | 208° |
| 2026-05-06 19:58 | 34.65596 | 135.34812 | 6772 ft | 262 kts | 234° |
| 2026-05-06 19:59 | 34.64824 | 135.32807 | 7421 ft | 265 kts | 258° |
| 2026-05-06 19:59 | 34.64804 | 135.30562 | 8039 ft | 271 kts | 281° |
| 2026-05-06 19:59 | 34.65536 | 135.28444 | 8667 ft | 277 kts | 301° |
| 2026-05-06 19:59 | 34.66381 | 135.26350 | 9284 ft | 278 kts | 282° |
| 2026-05-06 20:00 | 34.66781 | 135.24047 | 9960 ft | 280 kts | 281° |
| 2026-05-06 20:00 | 34.67206 | 135.21696 | 10342 ft | 294 kts | 281° |
| 2026-05-06 20:00 | 34.67653 | 135.19189 | 10486 ft | 313 kts | 276° |
| 2026-05-06 20:00 | 34.67613 | 135.16482 | 10622 ft | 331 kts | 258° |
| 2026-05-06 20:01 | 34.66822 | 135.13801 | 10845 ft | 344 kts | 244° |
| 2026-05-06 20:01 | 34.65746 | 135.11161 | 11240 ft | 354 kts | 243° |
| 2026-05-06 20:01 | 34.64621 | 135.08438 | 11448 ft | 367 kts | 243° |
| 2026-05-06 20:01 | 34.63480 | 135.05633 | 11855 ft | 373 kts | 244° |
| 2026-05-06 20:02 | 34.62338 | 135.02793 | 12421 ft | 375 kts | 244° |
| 2026-05-06 20:02 | 34.61036 | 135.00058 | 12966 ft | 376 kts | 231° |
| 2026-05-06 20:02 | 34.59122 | 134.97898 | 13497 ft | 378 kts | 217° |
| 2026-05-06 20:02 | 34.56952 | 134.96074 | 13996 ft | 381 kts | 215° |
| 2026-05-06 20:03 | 34.54744 | 134.94273 | 14394 ft | 385 kts | 215° |
| 2026-05-06 20:03 | 34.52506 | 134.92451 | 14768 ft | 389 kts | 215° |
| 2026-05-06 20:03 | 34.50258 | 134.90610 | 15151 ft | 392 kts | 215° |
| 2026-05-06 20:03 | 34.48023 | 134.88765 | 15532 ft | 396 kts | 215° |
| 2026-05-06 20:04 | 34.45738 | 134.86871 | 15890 ft | 400 kts | 216° |
| 2026-05-06 20:04 | 34.43432 | 134.84954 | 16243 ft | 403 kts | 216° |
| 2026-05-06 20:04 | 34.41119 | 134.83028 | 16601 ft | 406 kts | 216° |
| 2026-05-06 20:04 | 34.38777 | 134.81079 | 16951 ft | 409 kts | 216° |
| 2026-05-06 20:05 | 34.36419 | 134.79118 | 17291 ft | 413 kts | 216° |
| 2026-05-06 20:05 | 34.34043 | 134.77144 | 17629 ft | 416 kts | 216° |
| 2026-05-06 20:05 | 34.31653 | 134.75159 | 17951 ft | 419 kts | 216° |
| 2026-05-06 20:05 | 34.29240 | 134.73158 | 18262 ft | 422 kts | 216° |
| 2026-05-06 20:06 | 34.26848 | 134.71087 | 18525 ft | 424 kts | 222° |
| 2026-05-06 20:06 | 34.24836 | 134.68480 | 18814 ft | 424 kts | 231° |
| 2026-05-06 20:06 | 34.22963 | 134.65722 | 19133 ft | 425 kts | 232° |
| 2026-05-06 20:06 | 34.21087 | 134.62944 | 19423 ft | 427 kts | 232° |
| 2026-05-06 20:07 | 34.19197 | 134.60165 | 19698 ft | 429 kts | 231° |
| 2026-05-06 20:07 | 34.17281 | 134.57376 | 19970 ft | 431 kts | 231° |
| 2026-05-06 20:07 | 34.15355 | 134.54597 | 20250 ft | 433 kts | 231° |
| 2026-05-06 20:07 | 34.13413 | 134.51809 | 20513 ft | 435 kts | 231° |
| 2026-05-06 20:08 | 34.11455 | 134.49008 | 20770 ft | 437 kts | 231° |
| 2026-05-06 20:08 | 34.09489 | 134.46201 | 21028 ft | 439 kts | 231° |
| 2026-05-06 20:08 | 34.07516 | 134.43387 | 21289 ft | 440 kts | 231° |
| 2026-05-06 20:08 | 34.05534 | 134.40559 | 21540 ft | 442 kts | 231° |
| 2026-05-06 20:09 | 34.03544 | 134.37721 | 21787 ft | 444 kts | 231° |
| 2026-05-06 20:09 | 34.01570 | 134.34908 | 22027 ft | 445 kts | 231° |
| 2026-05-06 20:09 | 33.99563 | 134.32051 | 22250 ft | 447 kts | 231° |
| 2026-05-06 20:09 | 33.97548 | 134.29184 | 22475 ft | 449 kts | 231° |
| 2026-05-06 20:10 | 33.95526 | 134.26309 | 22708 ft | 451 kts | 231° |
| 2026-05-06 20:10 | 33.93496 | 134.23425 | 22930 ft | 452 kts | 231° |
| 2026-05-06 20:10 | 33.91456 | 134.20532 | 23140 ft | 454 kts | 231° |
| 2026-05-06 20:10 | 33.89405 | 134.17623 | 23347 ft | 456 kts | 231° |
| 2026-05-06 20:11 | 33.87348 | 134.14706 | 23547 ft | 457 kts | 231° |
| 2026-05-06 20:11 | 33.85286 | 134.11785 | 23740 ft | 459 kts | 231° |
| 2026-05-06 20:11 | 33.83218 | 134.08856 | 23905 ft | 460 kts | 231° |
| 2026-05-06 20:11 | 33.81142 | 134.05918 | 24083 ft | 461 kts | 231° |
| 2026-05-06 20:12 | 33.79064 | 134.02979 | 24258 ft | 462 kts | 231° |
| 2026-05-06 20:12 | 33.76978 | 134.00033 | 24414 ft | 463 kts | 230° |
| 2026-05-06 20:12 | 33.74886 | 133.97080 | 24545 ft | 465 kts | 231° |
| 2026-05-06 20:12 | 33.72790 | 133.94123 | 24682 ft | 466 kts | 231° |
| 2026-05-06 20:13 | 33.70686 | 133.91157 | 24828 ft | 467 kts | 231° |
| 2026-05-06 20:13 | 33.68574 | 133.88182 | 24976 ft | 468 kts | 231° |
| 2026-05-06 20:13 | 33.66457 | 133.85203 | 25117 ft | 469 kts | 230° |
| 2026-05-06 20:13 | 33.64335 | 133.82220 | 25260 ft | 470 kts | 230° |
| 2026-05-06 20:14 | 33.62208 | 133.79232 | 25395 ft | 472 kts | 230° |
| 2026-05-06 20:14 | 33.60076 | 133.76238 | 25536 ft | 473 kts | 230° |
| 2026-05-06 20:14 | 33.57930 | 133.73227 | 25672 ft | 474 kts | 230° |
| 2026-05-06 20:14 | 33.55787 | 133.70224 | 25816 ft | 475 kts | 230° |
| 2026-05-06 20:15 | 33.53502 | 133.67351 | 25936 ft | 477 kts | 223° |
| 2026-05-06 20:15 | 33.50879 | 133.64899 | 26065 ft | 479 kts | 217° |
| 2026-05-06 20:15 | 33.48186 | 133.62618 | 26207 ft | 480 kts | 216° |
| 2026-05-06 20:15 | 33.45454 | 133.60314 | 26329 ft | 482 kts | 216° |
| 2026-05-06 20:16 | 33.42718 | 133.57980 | 26453 ft | 483 kts | 217° |
| 2026-05-06 20:16 | 33.39995 | 133.55625 | 26604 ft | 483 kts | 217° |
| 2026-05-06 20:16 | 33.37277 | 133.53258 | 26811 ft | 482 kts | 217° |
| 2026-05-06 20:16 | 33.34568 | 133.50898 | 27035 ft | 482 kts | 217° |
| 2026-05-06 20:17 | 33.31860 | 133.48538 | 27233 ft | 482 kts | 217° |
| 2026-05-06 20:17 | 33.29152 | 133.46170 | 27405 ft | 482 kts | 217° |
| 2026-05-06 20:17 | 33.26442 | 133.43801 | 27615 ft | 482 kts | 217° |
| 2026-05-06 20:17 | 33.23736 | 133.41435 | 27847 ft | 482 kts | 217° |
| 2026-05-06 20:18 | 33.21032 | 133.39074 | 28097 ft | 481 kts | 217° |
| 2026-05-06 20:18 | 33.18341 | 133.36730 | 28350 ft | 481 kts | 217° |
| 2026-05-06 20:18 | 33.15629 | 133.34366 | 28576 ft | 481 kts | 217° |
| 2026-05-06 20:18 | 33.12930 | 133.32012 | 28801 ft | 481 kts | 217° |
| 2026-05-06 20:19 | 33.10230 | 133.29662 | 29062 ft | 480 kts | 217° |
| 2026-05-06 20:19 | 33.07528 | 133.27314 | 29317 ft | 480 kts | 217° |
| 2026-05-06 20:19 | 33.04830 | 133.24973 | 29576 ft | 480 kts | 217° |
| 2026-05-06 20:19 | 33.02169 | 133.22665 | 29822 ft | 480 kts | 217° |
| 2026-05-06 20:20 | 32.99465 | 133.20322 | 30067 ft | 480 kts | 217° |
| 2026-05-06 20:20 | 32.96760 | 133.17978 | 30310 ft | 480 kts | 217° |
| 2026-05-06 20:20 | 32.94062 | 133.15642 | 30571 ft | 479 kts | 217° |
| 2026-05-06 20:20 | 32.91369 | 133.13312 | 30850 ft | 478 kts | 217° |
| 2026-05-06 20:21 | 32.88682 | 133.10989 | 31114 ft | 477 kts | 217° |
| 2026-05-06 20:21 | 32.86000 | 133.08671 | 31358 ft | 477 kts | 217° |
| 2026-05-06 20:21 | 32.83316 | 133.06354 | 31610 ft | 477 kts | 217° |
| 2026-05-06 20:21 | 32.80635 | 133.04040 | 31874 ft | 476 kts | 217° |
| 2026-05-06 20:22 | 32.77955 | 133.01731 | 32124 ft | 476 kts | 217° |
| 2026-05-06 20:22 | 32.75279 | 132.99415 | 32367 ft | 475 kts | 218° |
| 2026-05-06 20:22 | 32.72666 | 132.97020 | 32637 ft | 474 kts | 219° |
| 2026-05-06 20:22 | 32.70103 | 132.94566 | 32892 ft | 473 kts | 220° |
| 2026-05-06 20:23 | 32.67558 | 132.92089 | 33128 ft | 473 kts | 220° |
| 2026-05-06 20:23 | 32.65013 | 132.89611 | 33371 ft | 472 kts | 220° |
| 2026-05-06 20:23 | 32.62473 | 132.87144 | 33597 ft | 472 kts | 220° |
| 2026-05-06 20:23 | 32.59958 | 132.84715 | 33809 ft | 472 kts | 220° |
| 2026-05-06 20:24 | 32.57412 | 132.82268 | 34030 ft | 471 kts | 220° |
| 2026-05-06 20:24 | 32.54854 | 132.79819 | 34016 ft | 474 kts | 220° |
| 2026-05-06 20:24 | 32.49724 | 132.74924 | 34025 ft | 472 kts | 220° |
| 2026-05-06 20:25 | 32.44615 | 132.70057 | 34031 ft | 470 kts | 220° |
| 2026-05-06 20:25 | 32.39527 | 132.65215 | 34033 ft | 468 kts | 220° |
| 2026-05-06 20:26 | 32.34452 | 132.60391 | 34027 ft | 468 kts | 220° |
| 2026-05-06 20:26 | 32.29371 | 132.55567 | 34031 ft | 468 kts | 220° |
| 2026-05-06 20:27 | 32.24279 | 132.50740 | 34030 ft | 470 kts | 220° |
| 2026-05-06 20:27 | 32.19165 | 132.45900 | 34031 ft | 472 kts | 220° |
| 2026-05-06 20:28 | 32.14028 | 132.41044 | 34034 ft | 474 kts | 220° |
| 2026-05-06 20:28 | 32.08867 | 132.36179 | 34034 ft | 476 kts | 220° |
| 2026-05-06 20:29 | 32.03686 | 132.31307 | 34029 ft | 477 kts | 220° |
| 2026-05-06 20:29 | 31.98532 | 132.26463 | 34034 ft | 477 kts | 220° |
| 2026-05-06 20:30 | 31.90741 | 132.19154 | 34027 ft | 477 kts | 220° |
| 2026-05-06 20:31 | 31.85540 | 132.14289 | 34028 ft | 477 kts | 220° |
| 2026-05-06 20:31 | 31.80344 | 132.09433 | 34030 ft | 477 kts | 220° |
| 2026-05-06 20:32 | 31.75153 | 132.04587 | 34034 ft | 477 kts | 220° |
| 2026-05-06 20:32 | 31.70837 | 132.00563 | 34033 ft | 476 kts | 220° |
| 2026-05-06 20:33 | 31.65647 | 131.95731 | 34029 ft | 476 kts | 220° |
| 2026-05-06 20:33 | 31.60455 | 131.90903 | 34027 ft | 476 kts | 220° |
| 2026-05-06 20:34 | 31.55269 | 131.86089 | 34030 ft | 476 kts | 220° |
| 2026-05-06 20:34 | 31.50072 | 131.81284 | 34031 ft | 476 kts | 220° |
| 2026-05-06 20:35 | 31.44859 | 131.76476 | 34031 ft | 476 kts | 220° |
| 2026-05-06 20:35 | 31.39648 | 131.71672 | 34035 ft | 477 kts | 220° |
| 2026-05-06 20:36 | 31.34427 | 131.66866 | 34022 ft | 478 kts | 220° |
| 2026-05-06 20:36 | 31.29204 | 131.62064 | 34028 ft | 478 kts | 220° |
| 2026-05-06 20:37 | 31.23966 | 131.57255 | 34025 ft | 478 kts | 220° |
| 2026-05-06 20:37 | 31.18766 | 131.52482 | 34025 ft | 479 kts | 220° |
| 2026-05-06 20:38 | 31.13525 | 131.47668 | 34023 ft | 479 kts | 220° |
| 2026-05-06 20:38 | 31.08285 | 131.42865 | 34024 ft | 479 kts | 220° |
| 2026-05-06 20:39 | 31.03045 | 131.38068 | 34019 ft | 479 kts | 220° |
| 2026-05-06 20:39 | 30.97800 | 131.33272 | 34020 ft | 479 kts | 220° |
| 2026-05-06 20:40 | 30.92555 | 131.28481 | 34021 ft | 479 kts | 220° |
| 2026-05-06 20:40 | 30.87312 | 131.23698 | 34020 ft | 479 kts | 220° |
| 2026-05-06 20:41 | 30.82070 | 131.18923 | 34018 ft | 478 kts | 220° |
| 2026-05-06 20:41 | 30.76827 | 131.14154 | 34020 ft | 478 kts | 220° |
| 2026-05-06 20:42 | 30.71573 | 131.09409 | 34019 ft | 478 kts | 220° |
| 2026-05-06 20:42 | 30.66305 | 131.04682 | 34017 ft | 478 kts | 220° |
| 2026-05-06 20:43 | 30.61045 | 130.99970 | 34022 ft | 478 kts | 219° |
| 2026-05-06 20:43 | 30.55285 | 130.96074 | 34023 ft | 481 kts | 209° |
| 2026-05-06 20:44 | 30.49309 | 130.92575 | 34019 ft | 481 kts | 209° |
| 2026-05-06 20:44 | 30.43357 | 130.89029 | 34016 ft | 481 kts | 210° |
| 2026-05-06 20:45 | 30.37466 | 130.85471 | 34021 ft | 481 kts | 210° |
| 2026-05-06 20:45 | 30.31492 | 130.81870 | 34011 ft | 481 kts | 210° |
| 2026-05-06 20:46 | 30.25594 | 130.78321 | 34003 ft | 481 kts | 210° |
| 2026-05-06 20:46 | 30.19650 | 130.74747 | 34009 ft | 481 kts | 210° |
| 2026-05-06 20:47 | 30.13712 | 130.71181 | 34005 ft | 481 kts | 210° |
| 2026-05-06 20:47 | 30.07769 | 130.67616 | 34004 ft | 481 kts | 210° |
| 2026-05-06 20:48 | 30.01823 | 130.64054 | 34001 ft | 482 kts | 210° |
| 2026-05-06 20:48 | 29.95875 | 130.60502 | 34008 ft | 482 kts | 210° |
| 2026-05-06 20:49 | 29.89918 | 130.56960 | 34008 ft | 482 kts | 210° |
| 2026-05-06 20:49 | 29.83962 | 130.53417 | 34008 ft | 482 kts | 210° |
| 2026-05-06 20:50 | 29.78006 | 130.49871 | 34000 ft | 482 kts | 210° |
| 2026-05-06 20:50 | 29.72052 | 130.46335 | 33997 ft | 482 kts | 210° |
| 2026-05-06 20:51 | 29.66090 | 130.42800 | 34004 ft | 482 kts | 210° |
| 2026-05-06 20:51 | 29.60167 | 130.39294 | 34007 ft | 482 kts | 210° |
| 2026-05-06 20:52 | 29.54205 | 130.35768 | 33996 ft | 482 kts | 210° |
| 2026-05-06 20:52 | 29.48233 | 130.32242 | 33999 ft | 482 kts | 210° |
| 2026-05-06 20:53 | 29.42267 | 130.28723 | 33998 ft | 482 kts | 210° |
| 2026-05-06 20:53 | 29.36298 | 130.25207 | 33997 ft | 482 kts | 210° |
| 2026-05-06 20:54 | 29.30327 | 130.21694 | 33996 ft | 482 kts | 211° |
| 2026-05-06 20:54 | 29.24355 | 130.18189 | 33997 ft | 482 kts | 211° |
| 2026-05-06 20:55 | 29.18381 | 130.14689 | 33999 ft | 482 kts | 211° |
| 2026-05-06 20:55 | 29.12408 | 130.11192 | 33996 ft | 482 kts | 211° |
| 2026-05-06 20:56 | 29.06433 | 130.07698 | 33996 ft | 482 kts | 211° |
| 2026-05-06 20:56 | 29.00460 | 130.04209 | 33992 ft | 482 kts | 211° |
| 2026-05-06 20:57 | 28.94491 | 130.00727 | 33994 ft | 482 kts | 211° |
| 2026-05-06 20:57 | 28.88513 | 129.97245 | 33998 ft | 482 kts | 211° |
| 2026-05-06 20:58 | 28.82545 | 129.93773 | 33998 ft | 482 kts | 211° |
| 2026-05-06 20:58 | 28.76619 | 129.90328 | 33995 ft | 481 kts | 211° |
| 2026-05-06 20:59 | 28.70647 | 129.86861 | 33991 ft | 481 kts | 211° |
| 2026-05-06 20:59 | 28.64679 | 129.83390 | 33987 ft | 481 kts | 211° |
| 2026-05-06 21:00 | 28.58724 | 129.79929 | 33972 ft | 481 kts | 211° |
| 2026-05-06 21:00 | 28.52767 | 129.76471 | 33969 ft | 480 kts | 211° |
| 2026-05-06 21:01 | 28.46816 | 129.73022 | 33967 ft | 480 kts | 211° |
| 2026-05-06 21:01 | 28.41268 | 129.69036 | 33956 ft | 470 kts | 226° |
| 2026-05-06 21:02 | 28.36436 | 129.64057 | 33964 ft | 469 kts | 227° |
| 2026-05-06 21:02 | 28.31620 | 129.59073 | 33970 ft | 469 kts | 226° |
| 2026-05-06 21:03 | 28.26761 | 129.54139 | 33980 ft | 468 kts | 226° |
| 2026-05-06 21:03 | 28.21892 | 129.49224 | 33989 ft | 468 kts | 226° |
| 2026-05-06 21:04 | 28.17030 | 129.44316 | 33993 ft | 468 kts | 226° |
| 2026-05-06 21:04 | 28.12185 | 129.39404 | 33991 ft | 467 kts | 226° |
| 2026-05-06 21:05 | 28.07346 | 129.34495 | 33992 ft | 466 kts | 226° |
| 2026-05-06 21:05 | 28.02511 | 129.29598 | 33992 ft | 466 kts | 226° |
| 2026-05-06 21:06 | 27.97679 | 129.24713 | 33995 ft | 466 kts | 226° |
| 2026-05-06 21:06 | 27.92853 | 129.19840 | 33993 ft | 465 kts | 226° |
| 2026-05-06 21:07 | 27.88028 | 129.14973 | 33993 ft | 465 kts | 226° |
| 2026-05-06 21:07 | 27.83205 | 129.10117 | 33990 ft | 464 kts | 226° |
| 2026-05-06 21:08 | 27.78390 | 129.05257 | 33994 ft | 464 kts | 226° |
| 2026-05-06 21:08 | 27.73589 | 129.00400 | 33994 ft | 463 kts | 226° |
| 2026-05-06 21:09 | 27.68785 | 128.95545 | 33992 ft | 463 kts | 226° |
| 2026-05-06 21:09 | 27.64016 | 128.90734 | 33995 ft | 463 kts | 226° |
| 2026-05-06 21:10 | 27.59208 | 128.85890 | 33995 ft | 463 kts | 226° |
| 2026-05-06 21:10 | 27.54406 | 128.81057 | 33994 ft | 462 kts | 226° |
| 2026-05-06 21:11 | 27.49604 | 128.76231 | 33993 ft | 462 kts | 226° |
| 2026-05-06 21:11 | 27.44808 | 128.71415 | 33993 ft | 462 kts | 226° |
| 2026-05-06 21:12 | 27.39878 | 128.66761 | 33993 ft | 464 kts | 222° |
| 2026-05-06 21:12 | 27.34746 | 128.62349 | 33993 ft | 464 kts | 221° |
| 2026-05-06 21:13 | 27.29652 | 128.57982 | 33994 ft | 463 kts | 222° |
| 2026-05-06 21:13 | 27.24524 | 128.53536 | 33996 ft | 462 kts | 222° |
| 2026-05-06 21:14 | 27.19442 | 128.49113 | 33971 ft | 462 kts | 222° |
| 2026-05-06 21:14 | 27.14363 | 128.44697 | 33965 ft | 461 kts | 222° |
| 2026-05-06 21:15 | 27.09313 | 128.40313 | 33975 ft | 461 kts | 222° |
| 2026-05-06 21:15 | 27.04244 | 128.35918 | 33964 ft | 461 kts | 222° |
| 2026-05-06 21:16 | 26.99176 | 128.31530 | 33964 ft | 460 kts | 222° |
| 2026-05-06 21:16 | 26.94102 | 128.27151 | 33973 ft | 460 kts | 222° |
| 2026-05-06 21:17 | 26.89035 | 128.22787 | 33978 ft | 459 kts | 222° |
| 2026-05-06 21:17 | 26.83974 | 128.18416 | 33990 ft | 459 kts | 222° |
| 2026-05-06 21:18 | 26.78917 | 128.14060 | 33994 ft | 459 kts | 222° |
| 2026-05-06 21:18 | 26.73861 | 128.09710 | 33995 ft | 459 kts | 222° |
| 2026-05-06 21:19 | 26.68799 | 128.05361 | 34005 ft | 459 kts | 222° |
| 2026-05-06 21:19 | 26.64595 | 128.01750 | 34005 ft | 459 kts | 222° |
| 2026-05-06 21:20 | 26.59540 | 127.97402 | 34002 ft | 459 kts | 222° |
| 2026-05-06 21:20 | 26.54485 | 127.93054 | 34000 ft | 459 kts | 222° |
| 2026-05-06 21:21 | 26.49425 | 127.88709 | 33998 ft | 458 kts | 222° |
| 2026-05-06 21:21 | 26.44365 | 127.84367 | 33987 ft | 459 kts | 222° |
| 2026-05-06 21:22 | 26.39304 | 127.80031 | 33990 ft | 458 kts | 222° |
| 2026-05-06 21:22 | 26.34252 | 127.75708 | 33992 ft | 458 kts | 222° |
| 2026-05-06 21:23 | 26.29201 | 127.71388 | 34007 ft | 457 kts | 222° |
| 2026-05-06 21:23 | 26.24149 | 127.67074 | 33968 ft | 457 kts | 222° |
| 2026-05-06 21:24 | 26.19616 | 127.62287 | 33961 ft | 448 kts | 237° |
| 2026-05-06 21:24 | 26.16182 | 127.56556 | 33962 ft | 444 kts | 241° |
| 2026-05-06 21:25 | 26.12805 | 127.50792 | 33967 ft | 445 kts | 240° |
| 2026-05-06 21:25 | 26.09379 | 127.45061 | 33975 ft | 445 kts | 240° |
| 2026-05-06 21:26 | 26.05932 | 127.39331 | 33981 ft | 445 kts | 240° |
| 2026-05-06 21:26 | 26.02478 | 127.33611 | 33990 ft | 446 kts | 240° |
| 2026-05-06 21:27 | 25.99010 | 127.27887 | 34002 ft | 446 kts | 240° |
| 2026-05-06 21:27 | 25.95546 | 127.22170 | 33999 ft | 446 kts | 240° |
| 2026-05-06 21:28 | 25.92078 | 127.16452 | 33996 ft | 446 kts | 240° |
| 2026-05-06 21:28 | 25.88606 | 127.10733 | 34000 ft | 446 kts | 240° |
| 2026-05-06 21:29 | 25.85134 | 127.05021 | 33996 ft | 446 kts | 240° |
| 2026-05-06 21:29 | 25.81662 | 126.99315 | 33997 ft | 446 kts | 240° |
| 2026-05-06 21:30 | 25.78191 | 126.93618 | 33997 ft | 445 kts | 239° |
| 2026-05-06 21:30 | 25.74717 | 126.87923 | 34000 ft | 445 kts | 239° |
| 2026-05-06 21:31 | 25.71256 | 126.82234 | 33998 ft | 445 kts | 239° |
| 2026-05-06 21:31 | 25.67804 | 126.76546 | 33992 ft | 444 kts | 239° |
| 2026-05-06 21:32 | 25.64373 | 126.70900 | 34001 ft | 444 kts | 239° |
| 2026-05-06 21:32 | 25.59194 | 126.62394 | 33998 ft | 444 kts | 239° |
| 2026-05-06 21:33 | 25.55741 | 126.56730 | 33994 ft | 444 kts | 239° |
| 2026-05-06 21:33 | 25.52285 | 126.51069 | 33994 ft | 443 kts | 239° |
| 2026-05-06 21:34 | 25.48842 | 126.45401 | 33993 ft | 443 kts | 239° |
| 2026-05-06 21:34 | 25.45413 | 126.39730 | 33994 ft | 443 kts | 239° |
| 2026-05-06 21:35 | 25.41979 | 126.34061 | 33993 ft | 444 kts | 239° |
| 2026-05-06 21:35 | 25.38540 | 126.28393 | 33995 ft | 444 kts | 239° |
| 2026-05-06 21:36 | 25.35099 | 126.22731 | 33991 ft | 444 kts | 239° |
| 2026-05-06 21:36 | 25.31650 | 126.17060 | 33995 ft | 444 kts | 239° |
| 2026-05-06 21:37 | 25.28202 | 126.11397 | 33988 ft | 444 kts | 239° |
| 2026-05-06 21:37 | 25.24740 | 126.05729 | 33991 ft | 445 kts | 238° |
| 2026-05-06 21:38 | 25.21278 | 126.00069 | 33989 ft | 445 kts | 238° |
| 2026-05-06 21:38 | 25.17812 | 125.94407 | 33986 ft | 445 kts | 238° |
| 2026-05-06 21:39 | 25.14347 | 125.88750 | 33992 ft | 445 kts | 238° |
| 2026-05-06 21:39 | 25.10876 | 125.83091 | 33988 ft | 445 kts | 238° |
| 2026-05-06 21:40 | 25.07403 | 125.77435 | 33988 ft | 445 kts | 238° |
| 2026-05-06 21:40 | 25.03924 | 125.71777 | 33987 ft | 445 kts | 238° |
| 2026-05-06 21:41 | 25.00471 | 125.66165 | 33988 ft | 446 kts | 238° |
| 2026-05-06 21:41 | 24.96989 | 125.60512 | 33982 ft | 446 kts | 238° |
| 2026-05-06 21:42 | 24.93502 | 125.54855 | 33979 ft | 446 kts | 238° |
| 2026-05-06 21:42 | 24.90015 | 125.49205 | 33978 ft | 446 kts | 238° |
| 2026-05-06 21:43 | 24.86524 | 125.43555 | 33964 ft | 446 kts | 238° |
| 2026-05-06 21:43 | 24.83035 | 125.37913 | 33969 ft | 446 kts | 238° |
| 2026-05-06 21:44 | 24.79530 | 125.32264 | 33963 ft | 447 kts | 236° |
| 2026-05-06 21:44 | 24.75227 | 125.27307 | 33965 ft | 453 kts | 219° |
| 2026-05-06 21:45 | 24.70036 | 125.23361 | 33960 ft | 454 kts | 217° |
| 2026-05-06 21:45 | 24.64809 | 125.19461 | 33966 ft | 454 kts | 217° |
| 2026-05-06 21:46 | 24.59600 | 125.15537 | 33973 ft | 454 kts | 217° |
| 2026-05-06 21:46 | 24.54405 | 125.11601 | 33978 ft | 454 kts | 218° |
| 2026-05-06 21:47 | 24.49210 | 125.07662 | 33976 ft | 454 kts | 218° |
| 2026-05-06 21:47 | 24.44007 | 125.03719 | 33988 ft | 454 kts | 217° |
| 2026-05-06 21:48 | 24.38801 | 124.99779 | 33973 ft | 455 kts | 217° |
| 2026-05-06 21:48 | 24.33626 | 124.95867 | 33975 ft | 455 kts | 217° |
| 2026-05-06 21:49 | 24.28416 | 124.91934 | 33980 ft | 455 kts | 217° |
| 2026-05-06 21:49 | 24.23206 | 124.88003 | 33978 ft | 455 kts | 217° |
| 2026-05-06 21:50 | 24.17993 | 124.84075 | 33975 ft | 455 kts | 217° |
| 2026-05-06 21:50 | 24.12775 | 124.80147 | 33976 ft | 455 kts | 217° |
| 2026-05-06 21:51 | 24.07556 | 124.76222 | 33972 ft | 455 kts | 217° |
| 2026-05-06 21:51 | 24.02332 | 124.72297 | 33972 ft | 455 kts | 217° |
| 2026-05-06 21:52 | 23.97107 | 124.68375 | 33974 ft | 456 kts | 217° |
| 2026-05-06 21:52 | 23.91876 | 124.64453 | 33978 ft | 456 kts | 217° |
| 2026-05-06 21:53 | 23.86640 | 124.60530 | 33968 ft | 457 kts | 217° |
| 2026-05-06 21:53 | 23.81394 | 124.56605 | 33968 ft | 457 kts | 217° |
| 2026-05-06 21:54 | 23.76148 | 124.52684 | 33969 ft | 457 kts | 217° |
| 2026-05-06 21:54 | 23.70896 | 124.48762 | 33966 ft | 457 kts | 217° |
| 2026-05-06 21:55 | 23.65644 | 124.44843 | 33971 ft | 457 kts | 217° |
| 2026-05-06 21:55 | 23.60424 | 124.40952 | 33969 ft | 458 kts | 217° |
| 2026-05-06 21:56 | 23.55164 | 124.37035 | 33963 ft | 458 kts | 217° |
| 2026-05-06 21:56 | 23.49905 | 124.33123 | 33965 ft | 458 kts | 217° |
| 2026-05-06 21:57 | 23.44639 | 124.29209 | 33961 ft | 458 kts | 217° |
| 2026-05-06 21:57 | 23.39378 | 124.25301 | 33962 ft | 458 kts | 217° |
| 2026-05-06 21:58 | 23.34108 | 124.21393 | 33968 ft | 458 kts | 217° |
| 2026-05-06 21:58 | 23.28831 | 124.17488 | 33969 ft | 459 kts | 217° |
| 2026-05-06 21:59 | 23.23547 | 124.13581 | 33961 ft | 459 kts | 217° |
| 2026-05-06 21:59 | 23.18260 | 124.09675 | 33965 ft | 459 kts | 217° |
| 2026-05-06 22:00 | 23.12973 | 124.05771 | 33966 ft | 460 kts | 217° |
| 2026-05-06 22:00 | 23.07680 | 124.01866 | 33971 ft | 460 kts | 217° |
| 2026-05-06 22:01 | 23.02377 | 123.97958 | 33960 ft | 460 kts | 217° |
| 2026-05-06 22:01 | 22.97057 | 123.94073 | 33966 ft | 461 kts | 216° |
| 2026-05-06 22:02 | 22.91705 | 123.90241 | 33965 ft | 461 kts | 216° |
| 2026-05-06 22:02 | 22.86353 | 123.86405 | 33964 ft | 461 kts | 216° |
| 2026-05-06 22:03 | 22.81001 | 123.82564 | 33969 ft | 461 kts | 216° |
| 2026-05-06 22:03 | 22.75647 | 123.78729 | 33958 ft | 462 kts | 216° |
| 2026-05-06 22:04 | 22.70283 | 123.74899 | 33964 ft | 462 kts | 216° |
| 2026-05-06 22:04 | 22.64954 | 123.71095 | 33956 ft | 462 kts | 216° |
| 2026-05-06 22:05 | 22.59593 | 123.67271 | 33963 ft | 461 kts | 216° |
| 2026-05-06 22:05 | 22.54230 | 123.63449 | 33961 ft | 461 kts | 216° |
| 2026-05-06 22:06 | 22.49745 | 123.60255 | 33961 ft | 461 kts | 216° |
| 2026-05-06 22:06 | 22.44431 | 123.56474 | 33958 ft | 460 kts | 216° |
| 2026-05-06 22:07 | 22.39083 | 123.52672 | 33960 ft | 460 kts | 217° |
| 2026-05-06 22:07 | 22.33744 | 123.48880 | 33956 ft | 459 kts | 217° |
| 2026-05-06 22:08 | 22.28401 | 123.45089 | 33966 ft | 458 kts | 217° |
| 2026-05-06 22:08 | 22.23074 | 123.41312 | 33954 ft | 458 kts | 217° |
| 2026-05-06 22:09 | 22.17752 | 123.37543 | 33959 ft | 457 kts | 217° |
| 2026-05-06 22:09 | 22.12433 | 123.33779 | 33951 ft | 457 kts | 217° |
| 2026-05-06 22:10 | 22.07119 | 123.30022 | 33960 ft | 456 kts | 217° |
| 2026-05-06 22:10 | 22.01813 | 123.26274 | 33952 ft | 456 kts | 216° |
| 2026-05-06 22:11 | 21.96513 | 123.22534 | 33956 ft | 455 kts | 216° |
| 2026-05-06 22:11 | 21.91213 | 123.18797 | 33952 ft | 455 kts | 216° |
| 2026-05-06 22:12 | 21.85914 | 123.15064 | 33957 ft | 455 kts | 216° |
| 2026-05-06 22:12 | 21.80615 | 123.11335 | 33951 ft | 455 kts | 216° |
| 2026-05-06 22:13 | 21.75357 | 123.07637 | 33953 ft | 455 kts | 216° |
| 2026-05-06 22:13 | 21.70062 | 123.03918 | 33946 ft | 454 kts | 216° |
| 2026-05-06 22:14 | 21.64767 | 123.00201 | 33950 ft | 454 kts | 216° |
| 2026-05-06 22:14 | 21.59476 | 122.96491 | 33949 ft | 454 kts | 216° |
| 2026-05-06 22:15 | 21.54181 | 122.92787 | 33963 ft | 454 kts | 216° |
| 2026-05-06 22:15 | 21.48890 | 122.89091 | 33945 ft | 454 kts | 216° |
| 2026-05-06 22:16 | 21.43606 | 122.85395 | 33951 ft | 453 kts | 216° |
| 2026-05-06 22:16 | 21.38323 | 122.81702 | 33947 ft | 453 kts | 216° |
| 2026-05-06 22:17 | 21.33040 | 122.78013 | 33956 ft | 452 kts | 216° |
| 2026-05-06 22:17 | 21.27770 | 122.74330 | 33942 ft | 452 kts | 216° |
| 2026-05-06 22:18 | 21.22505 | 122.70654 | 33942 ft | 452 kts | 216° |
| 2026-05-06 22:18 | 21.17236 | 122.66984 | 33939 ft | 451 kts | 216° |
| 2026-05-06 22:19 | 21.11973 | 122.63323 | 33944 ft | 451 kts | 216° |
| 2026-05-06 22:19 | 21.06744 | 122.59687 | 33947 ft | 451 kts | 216° |
| 2026-05-06 22:20 | 21.01488 | 122.56035 | 33941 ft | 451 kts | 216° |
| 2026-05-06 22:20 | 20.96265 | 122.52333 | 33936 ft | 450 kts | 217° |
| 2026-05-06 22:21 | 20.91109 | 122.48542 | 33946 ft | 450 kts | 217° |
| 2026-05-06 22:21 | 20.85956 | 122.44744 | 33936 ft | 450 kts | 217° |
| 2026-05-06 22:22 | 20.80794 | 122.40961 | 33940 ft | 450 kts | 217° |
| 2026-05-06 22:22 | 20.75626 | 122.37187 | 33939 ft | 450 kts | 217° |
| 2026-05-06 22:23 | 20.70448 | 122.33411 | 33943 ft | 450 kts | 217° |
| 2026-05-06 22:23 | 20.65272 | 122.29639 | 33945 ft | 451 kts | 217° |
| 2026-05-06 22:24 | 20.60086 | 122.25864 | 33940 ft | 451 kts | 217° |
| 2026-05-06 22:24 | 20.54932 | 122.22115 | 33938 ft | 451 kts | 217° |
| 2026-05-06 22:25 | 20.49745 | 122.18344 | 33932 ft | 451 kts | 217° |
| 2026-05-06 22:25 | 20.44553 | 122.14573 | 33930 ft | 452 kts | 217° |
| 2026-05-06 22:26 | 20.39360 | 122.10805 | 33937 ft | 452 kts | 217° |
| 2026-05-06 22:26 | 20.34160 | 122.07035 | 33929 ft | 452 kts | 217° |
| 2026-05-06 22:27 | 20.28964 | 122.03271 | 33937 ft | 451 kts | 217° |
| 2026-05-06 22:27 | 20.23772 | 121.99513 | 33930 ft | 451 kts | 217° |
| 2026-05-06 22:28 | 20.18575 | 121.95754 | 33934 ft | 451 kts | 217° |
| 2026-05-06 22:28 | 20.13385 | 121.92003 | 33927 ft | 451 kts | 217° |
| 2026-05-06 22:29 | 20.08185 | 121.88247 | 33979 ft | 454 kts | 217° |
| 2026-05-06 22:29 | 20.05572 | 121.86361 | 34190 ft | 454 kts | 217° |
| 2026-05-06 22:29 | 20.02965 | 121.84481 | 34453 ft | 452 kts | 217° |
| 2026-05-06 22:30 | 20.00367 | 121.82609 | 34731 ft | 450 kts | 217° |
| 2026-05-06 22:30 | 19.97784 | 121.80748 | 34986 ft | 449 kts | 217° |
| 2026-05-06 22:30 | 19.95201 | 121.78887 | 35177 ft | 449 kts | 217° |
| 2026-05-06 22:30 | 19.92615 | 121.77024 | 35343 ft | 449 kts | 217° |
| 2026-05-06 22:31 | 19.90057 | 121.75182 | 35506 ft | 450 kts | 217° |
| 2026-05-06 22:31 | 19.87435 | 121.73295 | 35719 ft | 449 kts | 218° |
| 2026-05-06 22:31 | 19.84888 | 121.71463 | 35912 ft | 447 kts | 218° |
| 2026-05-06 22:31 | 19.82307 | 121.69608 | 35909 ft | 449 kts | 218° |
| 2026-05-06 22:32 | 19.77123 | 121.65881 | 35920 ft | 450 kts | 218° |
| 2026-05-06 22:32 | 19.71946 | 121.62165 | 35925 ft | 448 kts | 218° |
| 2026-05-06 22:33 | 19.66780 | 121.58459 | 35921 ft | 447 kts | 217° |
| 2026-05-06 22:33 | 19.61631 | 121.54768 | 35918 ft | 447 kts | 217° |
| 2026-05-06 22:34 | 19.56483 | 121.51080 | 35918 ft | 446 kts | 217° |
| 2026-05-06 22:34 | 19.51336 | 121.47396 | 35915 ft | 446 kts | 217° |
| 2026-05-06 22:35 | 19.46188 | 121.43713 | 35921 ft | 446 kts | 217° |
| 2026-05-06 22:35 | 19.41034 | 121.40030 | 35916 ft | 447 kts | 217° |
| 2026-05-06 22:36 | 19.35902 | 121.36365 | 35916 ft | 448 kts | 217° |
| 2026-05-06 22:36 | 19.30725 | 121.32671 | 35915 ft | 449 kts | 217° |
| 2026-05-06 22:37 | 19.25534 | 121.28970 | 35914 ft | 450 kts | 217° |
| 2026-05-06 22:37 | 19.20331 | 121.25263 | 35913 ft | 451 kts | 217° |
| 2026-05-06 22:38 | 19.15119 | 121.21553 | 35918 ft | 452 kts | 217° |
| 2026-05-06 22:38 | 19.09895 | 121.17836 | 35904 ft | 453 kts | 217° |
| 2026-05-06 22:39 | 19.04673 | 121.14125 | 35910 ft | 452 kts | 217° |
| 2026-05-06 22:39 | 18.99451 | 121.10417 | 35907 ft | 452 kts | 217° |
| 2026-05-06 22:40 | 18.94234 | 121.06714 | 35903 ft | 452 kts | 217° |
| 2026-05-06 22:40 | 18.89015 | 121.03012 | 35886 ft | 452 kts | 216° |
| 2026-05-06 22:41 | 18.81212 | 120.97483 | 35909 ft | 454 kts | 216° |
| 2026-05-06 22:42 | 18.75953 | 120.93761 | 35907 ft | 456 kts | 217° |
| 2026-05-06 22:42 | 18.70678 | 120.90029 | 35905 ft | 457 kts | 217° |
| 2026-05-06 22:43 | 18.65398 | 120.86297 | 35897 ft | 456 kts | 217° |
| 2026-05-06 22:43 | 18.60136 | 120.82580 | 35904 ft | 455 kts | 217° |
| 2026-05-06 22:44 | 18.54868 | 120.78869 | 35903 ft | 455 kts | 216° |
| 2026-05-06 22:44 | 18.49615 | 120.75175 | 35901 ft | 454 kts | 216° |
| 2026-05-06 22:45 | 18.44371 | 120.71487 | 35893 ft | 453 kts | 216° |
| 2026-05-06 22:45 | 18.39131 | 120.67805 | 35883 ft | 452 kts | 216° |
| 2026-05-06 22:46 | 18.33905 | 120.64134 | 35894 ft | 451 kts | 216° |
| 2026-05-06 22:46 | 18.28687 | 120.60470 | 35885 ft | 451 kts | 216° |
| 2026-05-06 22:47 | 18.23469 | 120.56807 | 35890 ft | 451 kts | 216° |
| 2026-05-06 22:47 | 18.18000 | 120.53568 | 35887 ft | 455 kts | 203° |
| 2026-05-06 22:48 | 18.11810 | 120.52032 | 35892 ft | 461 kts | 189° |
| 2026-05-06 22:48 | 18.05410 | 120.51383 | 35886 ft | 463 kts | 188° |
| 2026-05-06 22:49 | 17.99000 | 120.50636 | 35887 ft | 464 kts | 189° |
| 2026-05-06 22:49 | 17.92571 | 120.49875 | 35887 ft | 465 kts | 189° |
| 2026-05-06 22:50 | 17.86125 | 120.49120 | 35890 ft | 466 kts | 189° |
| 2026-05-06 22:50 | 17.79668 | 120.48365 | 35897 ft | 467 kts | 189° |
| 2026-05-06 22:51 | 17.73209 | 120.47610 | 35895 ft | 467 kts | 189° |
| 2026-05-06 22:51 | 17.66751 | 120.46854 | 35898 ft | 467 kts | 189° |
| 2026-05-06 22:52 | 17.60341 | 120.46099 | 35899 ft | 466 kts | 189° |
| 2026-05-06 22:52 | 17.53886 | 120.45337 | 35901 ft | 466 kts | 189° |
| 2026-05-06 22:53 | 17.47451 | 120.44578 | 35896 ft | 465 kts | 189° |
| 2026-05-06 22:53 | 17.41022 | 120.43821 | 35894 ft | 464 kts | 189° |
| 2026-05-06 22:54 | 17.34621 | 120.43067 | 35900 ft | 462 kts | 189° |
| 2026-05-06 22:54 | 17.29308 | 120.42442 | 35911 ft | 461 kts | 189° |
| 2026-05-06 22:55 | 17.22928 | 120.41692 | 35908 ft | 461 kts | 189° |
| 2026-05-06 22:55 | 17.16550 | 120.40941 | 35908 ft | 461 kts | 189° |
| 2026-05-06 22:56 | 17.10182 | 120.40191 | 35911 ft | 460 kts | 189° |
| 2026-05-06 22:56 | 17.03820 | 120.39443 | 35911 ft | 460 kts | 189° |
| 2026-05-06 22:56 | 17.00624 | 120.39066 | 35442 ft | 469 kts | 188° |
| 2026-05-06 22:57 | 16.97360 | 120.38681 | 34831 ft | 470 kts | 188° |
| 2026-05-06 22:57 | 16.94157 | 120.38307 | 34659 ft | 452 kts | 189° |
| 2026-05-06 22:57 | 16.91105 | 120.37953 | 34551 ft | 431 kts | 189° |
| 2026-05-06 22:57 | 16.88175 | 120.37611 | 34323 ft | 415 kts | 189° |
| 2026-05-06 22:58 | 16.85367 | 120.37280 | 33773 ft | 410 kts | 189° |
| 2026-05-06 22:58 | 16.82536 | 120.36945 | 32992 ft | 408 kts | 189° |
| 2026-05-06 22:58 | 16.79722 | 120.36613 | 32301 ft | 406 kts | 189° |
| 2026-05-06 22:58 | 16.76931 | 120.36285 | 31694 ft | 401 kts | 189° |
| 2026-05-06 22:59 | 16.74173 | 120.35967 | 31107 ft | 397 kts | 187° |
| 2026-05-06 22:59 | 16.71420 | 120.35914 | 30521 ft | 395 kts | 177° |
| 2026-05-06 22:59 | 16.68694 | 120.36235 | 29951 ft | 392 kts | 175° |
| 2026-05-06 22:59 | 16.66004 | 120.36609 | 29289 ft | 389 kts | 175° |
| 2026-05-06 23:00 | 16.63337 | 120.36992 | 28665 ft | 385 kts | 174° |
| 2026-05-06 23:00 | 16.60694 | 120.37370 | 28053 ft | 381 kts | 174° |
| 2026-05-06 23:00 | 16.58083 | 120.37735 | 27465 ft | 377 kts | 174° |
| 2026-05-06 23:00 | 16.55497 | 120.38089 | 26891 ft | 373 kts | 174° |
| 2026-05-06 23:01 | 16.52934 | 120.38435 | 26332 ft | 370 kts | 174° |
| 2026-05-06 23:01 | 16.50390 | 120.38776 | 25783 ft | 367 kts | 174° |
| 2026-05-06 23:01 | 16.47872 | 120.39111 | 25268 ft | 363 kts | 174° |
| 2026-05-06 23:01 | 16.45375 | 120.39442 | 24741 ft | 360 kts | 174° |
| 2026-05-06 23:02 | 16.42901 | 120.39771 | 24234 ft | 357 kts | 174° |
| 2026-05-06 23:02 | 16.40449 | 120.40096 | 23734 ft | 354 kts | 174° |
| 2026-05-06 23:02 | 16.38010 | 120.40419 | 23206 ft | 351 kts | 174° |
| 2026-05-06 23:02 | 16.35596 | 120.40739 | 22637 ft | 348 kts | 174° |
| 2026-05-06 23:03 | 16.33207 | 120.41055 | 22068 ft | 345 kts | 174° |
| 2026-05-06 23:03 | 16.30831 | 120.41370 | 21503 ft | 343 kts | 174° |
| 2026-05-06 23:03 | 16.28469 | 120.41682 | 20981 ft | 341 kts | 173° |
| 2026-05-06 23:03 | 16.26122 | 120.41993 | 20445 ft | 339 kts | 173° |
| 2026-05-06 23:04 | 16.23826 | 120.42296 | 19928 ft | 336 kts | 173° |
| 2026-05-06 23:04 | 16.21511 | 120.42603 | 19420 ft | 334 kts | 173° |
| 2026-05-06 23:04 | 16.19215 | 120.42907 | 18931 ft | 331 kts | 173° |
| 2026-05-06 23:04 | 16.16935 | 120.43208 | 18428 ft | 329 kts | 173° |
| 2026-05-06 23:05 | 16.14666 | 120.43508 | 17875 ft | 328 kts | 173° |
| 2026-05-06 23:05 | 16.12408 | 120.43807 | 17314 ft | 326 kts | 173° |
| 2026-05-06 23:05 | 16.10172 | 120.44102 | 16796 ft | 322 kts | 173° |
| 2026-05-06 23:05 | 16.07959 | 120.44395 | 16326 ft | 318 kts | 172° |
| 2026-05-06 23:06 | 16.05780 | 120.44683 | 15916 ft | 313 kts | 172° |
| 2026-05-06 23:06 | 16.03627 | 120.44967 | 15564 ft | 312 kts | 172° |
| 2026-05-06 23:06 | 16.01474 | 120.45251 | 15201 ft | 312 kts | 172° |
| 2026-05-06 23:06 | 15.99320 | 120.45536 | 14824 ft | 312 kts | 172° |
| 2026-05-06 23:07 | 15.97167 | 120.45820 | 14466 ft | 312 kts | 172° |
| 2026-05-06 23:07 | 15.95003 | 120.46106 | 14093 ft | 313 kts | 172° |
| 2026-05-06 23:07 | 15.92843 | 120.46391 | 13739 ft | 314 kts | 172° |
| 2026-05-06 23:07 | 15.90671 | 120.46677 | 13322 ft | 315 kts | 172° |
| 2026-05-06 23:08 | 15.88500 | 120.46964 | 12933 ft | 314 kts | 172° |
| 2026-05-06 23:08 | 15.86336 | 120.47249 | 12560 ft | 313 kts | 172° |
| 2026-05-06 23:08 | 15.84182 | 120.47533 | 12206 ft | 312 kts | 172° |
| 2026-05-06 23:08 | 15.82030 | 120.47817 | 11846 ft | 311 kts | 172° |
| 2026-05-06 23:09 | 15.79884 | 120.48100 | 11476 ft | 311 kts | 172° |
| 2026-05-06 23:09 | 15.77740 | 120.48382 | 11119 ft | 310 kts | 172° |
| 2026-05-06 23:09 | 15.75605 | 120.48664 | 10780 ft | 309 kts | 172° |
| 2026-05-06 23:09 | 15.73475 | 120.48944 | 10436 ft | 308 kts | 172° |
| 2026-05-06 23:10 | 15.71350 | 120.49224 | 10111 ft | 307 kts | 172° |
| 2026-05-06 23:10 | 15.69259 | 120.49499 | 9898 ft | 301 kts | 172° |
| 2026-05-06 23:10 | 15.67223 | 120.49765 | 9891 ft | 288 kts | 172° |
| 2026-05-06 23:10 | 15.65234 | 120.50022 | 9327 ft | 295 kts | 172° |
| 2026-05-06 23:11 | 15.63193 | 120.50283 | 8887 ft | 297 kts | 172° |
| 2026-05-06 23:11 | 15.61138 | 120.50546 | 8523 ft | 297 kts | 172° |
| 2026-05-06 23:11 | 15.59088 | 120.50810 | 8154 ft | 297 kts | 172° |
| 2026-05-06 23:11 | 15.57040 | 120.51074 | 7783 ft | 296 kts | 172° |
| 2026-05-06 23:12 | 15.54997 | 120.51335 | 7444 ft | 296 kts | 172° |
| 2026-05-06 23:12 | 15.52955 | 120.51599 | 7093 ft | 296 kts | 171° |
| 2026-05-06 23:12 | 15.50912 | 120.51862 | 6734 ft | 296 kts | 171° |
| 2026-05-06 23:12 | 15.48897 | 120.52121 | 6396 ft | 296 kts | 171° |
| 2026-05-06 23:13 | 15.46849 | 120.52385 | 6023 ft | 297 kts | 171° |
| 2026-05-06 23:13 | 15.44793 | 120.52654 | 5648 ft | 297 kts | 171° |
| 2026-05-06 23:13 | 15.42756 | 120.52974 | 5273 ft | 296 kts | 162° |
| 2026-05-06 23:13 | 15.41033 | 120.54052 | 4941 ft | 290 kts | 128° |
| 2026-05-06 23:14 | 15.40254 | 120.55868 | 4819 ft | 271 kts | 95° |
| 2026-05-06 23:14 | 15.40330 | 120.57756 | 4721 ft | 255 kts | 89° |
| 2026-05-06 23:14 | 15.40261 | 120.59535 | 4576 ft | 240 kts | 98° |
| 2026-05-06 23:14 | 15.39923 | 120.61174 | 4486 ft | 228 kts | 106° |
| 2026-05-06 23:15 | 15.39290 | 120.62656 | 4196 ft | 222 kts | 130° |
| 2026-05-06 23:15 | 15.38036 | 120.63471 | 3963 ft | 214 kts | 169° |
| 2026-05-06 23:15 | 15.36600 | 120.63286 | 3798 ft | 207 kts | 194° |
| 2026-05-06 23:15 | 15.35214 | 120.62830 | 3424 ft | 209 kts | 195° |
| 2026-05-06 23:16 | 15.33884 | 120.62328 | 3142 ft | 199 kts | 197° |
| 2026-05-06 23:16 | 15.32639 | 120.61834 | 2886 ft | 186 kts | 198° |
| 2026-05-06 23:16 | 15.31463 | 120.61383 | 2705 ft | 177 kts | 197° |
| 2026-05-06 23:16 | 15.30331 | 120.60906 | 2483 ft | 171 kts | 201° |
| 2026-05-06 23:17 | 15.29245 | 120.60465 | 2255 ft | 165 kts | 196° |
| 2026-05-06 23:17 | 15.28174 | 120.60100 | 1986 ft | 158 kts | 202° |
| 2026-05-06 23:17 | 15.27198 | 120.59609 | 1852 ft | 159 kts | 198° |
| 2026-05-06 23:17 | 15.26139 | 120.59232 | 1635 ft | 161 kts | 198° |
| 2026-05-06 23:18 | 15.25111 | 120.58836 | 1420 ft | 157 kts | 199° |
| 2026-05-06 23:18 | 15.24090 | 120.58430 | 1214 ft | 157 kts | 199° |
| 2026-05-06 23:18 | 15.23073 | 120.58027 | 1046 ft | 157 kts | 200° |
| 2026-05-06 23:18 | 15.22063 | 120.57625 | 828 ft | 154 kts | 201° |
| 2026-05-06 23:19 | 15.21071 | 120.57230 | 641 ft | 152 kts | 201° |
| 2026-05-06 23:19 | 15.20085 | 120.56838 | 437 ft | 151 kts | 201° |
| 2026-05-06 23:19 | 15.19237 | 120.56492 | 435 ft | 103 kts | 202° |
| 2026-05-06 23:19 | 15.18697 | 120.56273 | 437 ft | 60 kts | 198° |
| 2026-05-06 23:20 | 15.18327 | 120.56133 | 438 ft | 49 kts | 201° |
| 2026-05-06 23:20 | 15.18241 | 120.56098 | 432 ft | 3 kts | 201° |
| 2026-05-06 23:20 | 15.18196 | 120.56080 | 426 ft | 11 kts | 201° |
| 2026-05-06 23:20 | 15.18148 | 120.56007 | 433 ft | 17 kts | 280° |
| 2026-05-06 23:21 | 15.18186 | 120.55897 | 428 ft | 17 kts | 291° |
| 2026-05-06 23:21 | 15.18229 | 120.55786 | 430 ft | 12 kts | 291° |
| 2026-05-06 23:21 | 15.18259 | 120.55704 | 432 ft | 12 kts | 291° |
| 2026-05-06 23:21 | 15.18289 | 120.55624 | 433 ft | 12 kts | 291° |
| 2026-05-06 23:22 | 15.18318 | 120.55547 | 435 ft | 11 kts | 291° |
| 2026-05-06 23:22 | 15.18346 | 120.55471 | 431 ft | 11 kts | 291° |
| 2026-05-06 23:22 | 15.18348 | 120.55464 | 435 ft | 0 kts | 291° |
| 2026-05-06 23:23 | 15.18351 | 120.55457 | 428 ft | 3 kts | 292° |
| 2026-05-06 23:23 | 15.18382 | 120.55434 | 431 ft | 9 kts | 356° |
| 2026-05-06 23:24 | 15.18459 | 120.55458 | 435 ft | 14 kts | 18° |
| 2026-05-06 23:24 | 15.18565 | 120.55500 | 435 ft | 17 kts | 13° |
| 2026-05-06 23:24 | 15.18629 | 120.55426 | 423 ft | 15 kts | 289° |
| 2026-05-06 23:24 | 15.18663 | 120.55327 | 431 ft | 14 kts | 291° |
| 2026-05-06 23:25 | 15.18687 | 120.55264 | 424 ft | 8 kts | 291° |
| 2026-05-06 23:25 | 15.18706 | 120.55214 | 431 ft | 7 kts | 291° |
| 2026-05-06 23:25 | 15.18721 | 120.55165 | 435 ft | 7 kts | 275° |
| 2026-05-06 23:25 | 15.18715 | 120.55115 | 435 ft | 7 kts | 270° |
| 2026-05-06 23:26 | 15.18729 | 120.55068 | 425 ft | 7 kts | 290° |
| 2026-05-06 23:26 | 15.18738 | 120.55043 | 431 ft | 0 kts | 290° |